Time;durP1;ratioP1;P1;durP2;ratioP2;P2;SDS_P1;SDS_P2;PMS_P1;PMS_P2;Temp;Humidity;BMP_temperature;BMP_pressure;BME280_temperature;BME280_humidity;BME280_pressure;Samples;Min_cycle;Max_cycle;Signal;HPM_P1;HPM_P2
2023/02/17 00:00:59;;;;;;;21.97;16.07;;;9.90;99.90;;;;;;5027211;28;20410;-77
2023/02/17 00:03:25;;;;;;;21.90;16.07;;;10.00;99.90;;;;;;5034572;28;20437;-77
2023/02/17 00:05:50;;;;;;;20.70;15.93;;;10.00;99.90;;;;;;5027185;28;20179;-76
2023/02/17 00:08:16;;;;;;;20.60;16.07;;;10.00;99.90;;;;;;5036898;28;20445;-77
2023/02/17 00:10:42;;;;;;;19.10;14.90;;;10.00;99.90;;;;;;5033853;28;20251;-79
2023/02/17 00:13:08;;;;;;;21.13;15.50;;;10.00;99.90;;;;;;5034099;28;20205;-79
2023/02/17 00:15:33;;;;;;;20.77;16.87;;;10.00;99.90;;;;;;5034609;28;20246;-79
2023/02/17 00:17:59;;;;;;;19.63;15.90;;;10.00;99.90;;;;;;5033846;28;20296;-77
2023/02/17 00:20:25;;;;;;;18.20;16.17;;;10.00;99.90;;;;;;5034410;28;20209;-79
2023/02/17 00:22:50;;;;;;;23.17;14.90;;;10.00;99.90;;;;;;5027583;28;20286;-79
2023/02/17 00:25:16;;;;;;;19.27;14.37;;;10.10;99.90;;;;;;5039736;28;20197;-79
2023/02/17 00:27:42;;;;;;;18.40;14.63;;;10.10;99.90;;;;;;5036078;28;20273;-79
2023/02/17 00:30:08;;;;;;;16.27;14.00;;;10.20;99.90;;;;;;5034868;28;20190;-79
2023/02/17 00:32:33;;;;;;;17.67;14.27;;;10.10;99.90;;;;;;5035739;28;20460;-78
2023/02/17 00:34:59;;;;;;;20.07;15.00;;;10.20;99.90;;;;;;5017865;28;20926;-78
2023/02/17 00:37:25;;;;;;;20.20;14.70;;;10.20;99.90;;;;;;5034372;28;20217;-77
2023/02/17 00:39:50;;;;;;;17.67;13.50;;;10.20;99.90;;;;;;5017442;28;20178;-79
2023/02/17 00:42:16;;;;;;;16.17;13.53;;;10.20;99.90;;;;;;5034461;28;20206;-77
2023/02/17 00:44:42;;;;;;;16.80;13.37;;;10.20;99.90;;;;;;5033913;28;20183;-78
2023/02/17 00:47:07;;;;;;;16.57;12.80;;;10.20;99.90;;;;;;5033466;28;20527;-78
2023/02/17 00:49:33;;;;;;;16.17;13.00;;;10.20;99.90;;;;;;5034859;28;20191;-79
2023/02/17 00:52:00;;;;;;;15.57;12.80;;;10.20;99.90;;;;;;5033597;28;20559;-79
2023/02/17 00:54:26;;;;;;;20.10;13.93;;;10.30;99.90;;;;;;5034507;28;20655;-77
2023/02/17 00:56:52;;;;;;;19.83;12.77;;;10.30;99.90;;;;;;5017118;28;20444;-78
2023/02/17 00:59:18;;;;;;;18.13;12.20;;;10.30;99.90;;;;;;5033598;28;20865;-78
2023/02/17 01:01:43;;;;;;;15.37;12.77;;;10.20;99.90;;;;;;5033995;28;20206;-79
2023/02/17 01:04:09;;;;;;;13.87;12.23;;;10.20;99.90;;;;;;5032343;28;20186;-79
2023/02/17 01:06:37;;;;;;;14.93;12.27;;;10.30;99.90;;;;;;5034944;28;20182;-79
2023/02/17 01:09:04;;;;;;;17.60;12.40;;;10.30;99.90;;;;;;5037921;28;20657;-77
2023/02/17 01:11:31;;;;;;;15.77;13.13;;;10.30;99.90;;;;;;5034437;28;20465;-78
2023/02/17 01:13:58;;;;;;;16.70;13.37;;;10.30;99.90;;;;;;5035013;28;20420;-79
2023/02/17 01:16:34;;;;;;;15.60;13.40;;;10.30;99.90;;;;;;5034766;28;20417;-79
2023/02/17 01:19:02;;;;;;;16.00;13.07;;;10.30;99.90;;;;;;5026287;28;20460;-78
2023/02/17 01:21:29;;;;;;;16.17;13.40;;;10.30;99.90;;;;;;5017025;28;20440;-79
2023/02/17 01:23:57;;;;;;;15.50;13.07;;;10.30;99.90;;;;;;5035836;28;20767;-79
2023/02/17 01:26:25;;;;;;;16.33;13.50;;;10.30;99.90;;;;;;5034709;28;20432;-79
2023/02/17 01:28:52;;;;;;;17.10;13.10;;;10.20;99.90;;;;;;5022208;28;20894;-78
2023/02/17 01:31:19;;;;;;;17.03;13.93;;;10.20;99.90;;;;;;5035769;28;20456;-79
2023/02/17 01:33:45;;;;;;;17.30;13.77;;;10.30;99.90;;;;;;5033307;28;20748;-78
2023/02/17 01:36:14;;;;;;;14.33;12.60;;;10.30;99.90;;;;;;5033395;28;20425;-79
2023/02/17 01:38:40;;;;;;;18.10;13.30;;;10.30;99.90;;;;;;5034064;28;20198;-78
2023/02/17 01:41:08;;;;;;;17.40;14.40;;;10.30;99.90;;;;;;5032510;28;20413;-77
2023/02/17 01:43:34;;;;;;;17.70;13.80;;;10.30;99.90;;;;;;5033123;28;20194;-78
2023/02/17 01:46:04;;;;;;;14.30;12.80;;;10.30;99.90;;;;;;5033155;28;20421;-78
2023/02/17 01:48:46;;;;;;;16.47;13.33;;;10.30;99.90;;;;;;5033999;28;20512;-79
2023/02/17 01:51:22;;;;;;;14.53;12.40;;;10.30;99.90;;;;;;5032744;28;20432;-77
2023/02/17 01:53:51;;;;;;;13.83;12.30;;;10.30;99.90;;;;;;5034311;28;20424;-78
2023/02/17 01:56:17;;;;;;;15.07;13.50;;;10.30;99.90;;;;;;5033561;28;20425;-78
2023/02/17 01:58:49;;;;;;;14.57;13.07;;;10.30;99.90;;;;;;5033741;28;20461;-78
2023/02/17 02:01:15;;;;;;;15.60;13.23;;;10.30;99.90;;;;;;5032175;28;20420;-78
2023/02/17 02:03:41;;;;;;;14.63;12.70;;;10.40;99.90;;;;;;5033438;28;20417;-78
2023/02/17 02:06:12;;;;;;;16.30;13.50;;;10.30;99.90;;;;;;5032039;28;20409;-77
2023/02/17 02:09:08;;;;;;;15.10;13.17;;;10.40;99.90;;;;;;5038120;28;20420;-78
2023/02/17 02:11:35;;;;;;;18.23;13.70;;;10.40;99.90;;;;;;5046959;28;20459;-77
2023/02/17 02:14:03;;;;;;;15.33;13.57;;;10.40;99.90;;;;;;5052183;28;20519;-77
2023/02/17 02:16:44;;;;;;;15.27;13.20;;;10.40;99.90;;;;;;5057766;28;20477;-77
2023/02/17 02:19:38;;;;;;;17.20;13.47;;;10.40;99.90;;;;;;5057381;28;20459;-78
2023/02/17 02:22:24;;;;;;;17.67;13.60;;;10.40;99.90;;;;;;5057169;28;21390;-79
2023/02/17 02:24:56;;;;;;;15.50;13.87;;;10.30;99.90;;;;;;5055787;28;20412;-78
2023/02/17 02:27:39;;;;;;;13.53;12.13;;;10.40;99.90;;;;;;5056244;28;20462;-79
2023/02/17 02:30:20;;;;;;;14.30;12.57;;;10.30;99.90;;;;;;5058079;28;20436;-79
2023/02/17 02:33:23;;;;;;;16.73;13.47;;;10.30;99.90;;;;;;5056072;28;20428;-78
2023/02/17 02:36:32;;;;;;;21.23;14.30;;;10.30;99.90;;;;;;5057509;28;20418;-77
2023/02/17 02:39:00;;;;;;;15.70;12.87;;;10.30;99.90;;;;;;4943451;28;20481;-78
2023/02/17 02:41:34;;;;;;;13.37;11.97;;;10.30;99.90;;;;;;5037112;28;20432;-78
2023/02/17 02:44:04;;;;;;;15.40;13.40;;;10.30;99.90;;;;;;5057126;28;20439;-78
2023/02/17 02:46:30;;;;;;;14.93;13.33;;;10.20;99.90;;;;;;5057285;28;20421;-77
2023/02/17 02:48:55;;;;;;;13.40;12.10;;;10.30;99.90;;;;;;5057118;28;20416;-79
2023/02/17 02:51:52;;;;;;;14.87;12.30;;;10.30;99.90;;;;;;5055801;28;20262;-77
2023/02/17 02:54:45;;;;;;;13.77;12.27;;;10.30;99.90;;;;;;5056464;28;20655;-77
2023/02/17 02:57:17;;;;;;;14.07;12.40;;;10.40;99.90;;;;;;5056930;28;20456;-78
2023/02/17 02:59:51;;;;;;;14.97;13.00;;;10.40;99.90;;;;;;5055875;28;20530;-77
2023/02/17 03:02:41;;;;;;;15.07;12.13;;;10.40;99.90;;;;;;5056762;28;20437;-78
2023/02/17 03:05:24;;;;;;;15.90;12.70;;;10.40;99.90;;;;;;5055395;28;20943;-78
2023/02/17 03:08:21;;;;;;;14.27;11.83;;;10.50;99.90;;;;;;5055223;28;20412;-79
2023/02/17 03:10:52;;;;;;;14.23;12.73;;;10.40;99.90;;;;;;5016946;28;20425;-76
2023/02/17 03:13:19;;;;;;;13.20;11.57;;;10.40;99.90;;;;;;5015482;28;20485;-77
2023/02/17 03:15:46;;;;;;;18.57;12.80;;;10.50;99.90;;;;;;4998906;28;20460;-77
2023/02/17 03:18:13;;;;;;;12.97;11.53;;;10.50;99.90;;;;;;5016706;28;20489;-78
2023/02/17 03:20:52;;;;;;;12.90;11.37;;;10.40;99.90;;;;;;5016857;28;20418;-79
2023/02/17 03:23:18;;;;;;;15.13;11.30;;;10.40;99.90;;;;;;5014927;28;20437;-78
2023/02/17 03:25:44;;;;;;;13.83;12.33;;;10.40;99.90;;;;;;5016626;28;21000;-79
2023/02/17 03:28:10;;;;;;;17.73;12.60;;;10.40;99.90;;;;;;5014120;28;20194;-78
2023/02/17 03:30:36;;;;;;;13.40;11.60;;;10.40;99.90;;;;;;5015654;28;20522;-77
2023/02/17 03:33:02;;;;;;;12.80;11.40;;;10.40;99.90;;;;;;5016010;28;20729;-79
2023/02/17 03:35:28;;;;;;;14.10;11.83;;;10.40;99.90;;;;;;5016099;28;20502;-79
2023/02/17 03:37:53;;;;;;;12.93;11.63;;;10.40;99.90;;;;;;5015435;28;20221;-78
2023/02/17 03:40:19;;;;;;;12.33;11.07;;;10.50;99.90;;;;;;5031656;28;20668;-77
2023/02/17 03:42:45;;;;;;;12.40;10.80;;;10.40;99.90;;;;;;5010881;28;20613;-77
2023/02/17 03:45:10;;;;;;;12.70;11.40;;;10.40;99.90;;;;;;5010941;28;20227;-77
2023/02/17 03:47:36;;;;;;;13.10;11.67;;;10.50;99.90;;;;;;5010831;28;20171;-78
2023/02/17 03:50:02;;;;;;;11.83;10.67;;;10.50;99.90;;;;;;5010756;28;20541;-77
2023/02/17 03:52:27;;;;;;;11.60;10.40;;;10.50;99.90;;;;;;5009732;28;20202;-77
2023/02/17 03:54:53;;;;;;;11.33;10.13;;;10.50;99.90;;;;;;5009488;28;20215;-77
2023/02/17 03:57:19;;;;;;;11.80;10.60;;;10.50;99.90;;;;;;5010647;28;20238;-77
2023/02/17 03:59:44;;;;;;;11.30;10.20;;;10.50;99.90;;;;;;4992248;28;20171;-77
2023/02/17 04:02:10;;;;;;;12.30;10.93;;;10.50;99.90;;;;;;5022023;28;20206;-77
2023/02/17 04:04:36;;;;;;;12.70;10.50;;;10.60;99.90;;;;;;5029010;28;20185;-77
2023/02/17 04:07:02;;;;;;;13.30;10.63;;;10.60;99.90;;;;;;5030185;28;20181;-77
2023/02/17 04:09:28;;;;;;;13.63;10.10;;;10.50;99.90;;;;;;5024081;28;20921;-77
2023/02/17 04:11:53;;;;;;;11.33;10.23;;;10.50;99.90;;;;;;5050379;28;20980;-77
2023/02/17 04:14:19;;;;;;;12.47;10.00;;;10.50;99.90;;;;;;5049907;28;20170;-77
2023/02/17 04:16:44;;;;;;;11.87;10.63;;;10.50;99.90;;;;;;5050221;28;20174;-77
2023/02/17 04:19:10;;;;;;;12.27;10.97;;;10.50;99.90;;;;;;5050066;28;20216;-76
2023/02/17 04:21:36;;;;;;;12.67;10.57;;;10.50;99.90;;;;;;5048586;28;20674;-76
2023/02/17 04:24:02;;;;;;;12.37;10.80;;;10.50;99.90;;;;;;5049784;28;20181;-77
2023/02/17 04:26:28;;;;;;;11.70;10.00;;;10.60;99.90;;;;;;5050075;28;20206;-77
2023/02/17 04:28:54;;;;;;;11.77;10.53;;;10.60;99.90;;;;;;5049789;28;20436;-76
2023/02/17 04:31:20;;;;;;;11.70;10.47;;;10.60;99.90;;;;;;5048144;28;20451;-77
2023/02/17 04:33:45;;;;;;;13.80;10.97;;;10.60;99.90;;;;;;5049534;28;20188;-76
2023/02/17 04:36:11;;;;;;;12.10;10.53;;;10.60;99.90;;;;;;5049967;28;20209;-77
2023/02/17 04:38:38;;;;;;;11.43;9.50;;;10.60;99.90;;;;;;5048107;28;20228;-77
2023/02/17 04:41:05;;;;;;;10.37;9.37;;;10.60;99.90;;;;;;5049427;28;20181;-77
2023/02/17 04:43:31;;;;;;;11.03;9.80;;;10.60;99.90;;;;;;5049287;28;20436;-77
2023/02/17 04:45:57;;;;;;;12.70;11.27;;;10.60;99.90;;;;;;5049465;28;20785;-76
2023/02/17 04:48:23;;;;;;;11.03;9.70;;;10.60;99.90;;;;;;5049285;28;20421;-78
2023/02/17 04:50:49;;;;;;;11.87;9.90;;;10.60;99.90;;;;;;5048084;28;20702;-77
2023/02/17 04:53:15;;;;;;;10.60;9.43;;;10.60;99.90;;;;;;5047906;28;20440;-77
2023/02/17 04:55:41;;;;;;;13.37;10.73;;;10.60;99.90;;;;;;5048392;28;20185;-77
2023/02/17 04:58:08;;;;;;;11.73;10.30;;;10.60;99.90;;;;;;5049432;28;20201;-77
2023/02/17 05:00:34;;;;;;;11.90;9.40;;;10.60;99.90;;;;;;5049235;28;20466;-77
2023/02/17 05:02:59;;;;;;;10.93;9.60;;;10.60;99.90;;;;;;5048062;28;20869;-78
2023/02/17 05:05:25;;;;;;;11.83;10.63;;;10.60;99.90;;;;;;5047866;28;20473;-77
2023/02/17 05:07:51;;;;;;;11.93;10.30;;;10.60;99.90;;;;;;5048989;28;20654;-77
2023/02/17 05:10:17;;;;;;;10.50;9.40;;;10.60;99.90;;;;;;5030562;28;20424;-77
2023/02/17 05:12:43;;;;;;;11.83;10.63;;;10.60;99.90;;;;;;5029401;28;20214;-77
2023/02/17 05:15:09;;;;;;;11.83;10.43;;;10.60;99.90;;;;;;5029265;28;20425;-77
2023/02/17 05:17:36;;;;;;;13.03;10.37;;;10.60;99.90;;;;;;5061415;28;20198;-78
2023/02/17 05:20:02;;;;;;;10.70;9.70;;;10.60;99.90;;;;;;5029191;28;20858;-78
2023/02/17 05:22:28;;;;;;;11.27;10.07;;;10.60;99.90;;;;;;5027905;28;20926;-78
2023/02/17 05:24:53;;;;;;;11.33;10.10;;;10.60;99.90;;;;;;5028916;28;20421;-78
2023/02/17 05:27:19;;;;;;;11.70;10.43;;;10.60;99.90;;;;;;5028959;28;20190;-76
2023/02/17 05:29:45;;;;;;;11.97;10.73;;;10.60;99.90;;;;;;5028771;28;20643;-77
2023/02/17 05:32:10;;;;;;;11.53;10.33;;;10.60;99.90;;;;;;5029076;28;20260;-77
2023/02/17 05:34:36;;;;;;;10.33;9.33;;;10.70;99.90;;;;;;5028761;28;20182;-77
2023/02/17 05:37:02;;;;;;;11.47;9.93;;;10.60;99.90;;;;;;5027448;28;20239;-77
2023/02/17 05:39:28;;;;;;;12.20;11.00;;;10.70;99.90;;;;;;5028624;28;20174;-77
2023/02/17 05:41:54;;;;;;;13.50;10.87;;;10.70;99.90;;;;;;5044125;28;20194;-79
2023/02/17 05:44:19;;;;;;;12.47;11.00;;;10.80;99.90;;;;;;5010856;28;20409;-77
2023/02/17 05:46:45;;;;;;;12.83;11.53;;;10.80;99.90;;;;;;5027589;28;20269;-78
2023/02/17 05:49:11;;;;;;;11.90;10.70;;;10.70;99.90;;;;;;5028861;28;20178;-78
2023/02/17 05:51:37;;;;;;;12.90;10.80;;;10.70;99.90;;;;;;5031759;28;20209;-78
2023/02/17 05:54:03;;;;;;;13.67;12.27;;;10.70;99.90;;;;;;5032071;28;20268;-78
2023/02/17 05:56:28;;;;;;;11.70;10.50;;;10.70;99.90;;;;;;5033688;28;20428;-78
2023/02/17 05:58:54;;;;;;;12.00;10.80;;;10.70;99.90;;;;;;5015679;28;20456;-77
2023/02/17 06:01:20;;;;;;;11.93;10.73;;;10.70;99.90;;;;;;5032784;28;20183;-77
2023/02/17 06:03:46;;;;;;;13.90;11.07;;;10.70;99.90;;;;;;5032962;28;20187;-78
2023/02/17 06:06:11;;;;;;;12.47;11.17;;;10.70;99.90;;;;;;5032285;28;21108;-78
2023/02/17 06:08:37;;;;;;;12.40;9.90;;;10.70;99.90;;;;;;5033119;28;20265;-78
2023/02/17 06:11:03;;;;;;;14.57;12.77;;;10.70;99.90;;;;;;5030629;28;20197;-78
2023/02/17 06:13:29;;;;;;;12.03;10.70;;;10.70;99.90;;;;;;5027458;28;20234;-78
2023/02/17 06:15:54;;;;;;;12.97;10.70;;;10.70;99.90;;;;;;5032374;28;20471;-78
2023/02/17 06:18:20;;;;;;;12.30;10.97;;;10.70;99.90;;;;;;5034382;28;20206;-77
2023/02/17 06:20:46;;;;;;;13.77;10.57;;;10.80;99.90;;;;;;5034997;28;20421;-77
2023/02/17 06:23:11;;;;;;;13.73;11.20;;;10.80;99.90;;;;;;5015252;28;20248;-77
2023/02/17 06:25:37;;;;;;;12.90;10.43;;;10.80;99.90;;;;;;5032247;28;20248;-78
2023/02/17 06:28:03;;;;;;;12.40;10.40;;;10.80;99.90;;;;;;5031284;28;20722;-77
2023/02/17 06:30:29;;;;;;;12.27;10.90;;;10.80;99.90;;;;;;5031807;28;20186;-77
2023/02/17 06:32:56;;;;;;;11.73;10.53;;;10.70;99.90;;;;;;5030827;28;20463;-77
2023/02/17 06:35:22;;;;;;;11.50;10.30;;;10.70;99.90;;;;;;5032109;28;20409;-77
2023/02/17 06:37:47;;;;;;;11.70;10.40;;;10.70;99.90;;;;;;5030531;28;21053;-77
2023/02/17 06:40:13;;;;;;;11.43;10.30;;;10.80;99.90;;;;;;5031930;28;20178;-77
2023/02/17 06:42:39;;;;;;;12.33;11.03;;;10.80;99.90;;;;;;5031126;28;20206;-77
2023/02/17 06:45:05;;;;;;;11.70;10.50;;;10.80;99.90;;;;;;5029037;28;20470;-77
2023/02/17 06:47:32;;;;;;;12.40;11.13;;;10.80;99.90;;;;;;5030442;28;20182;-77
2023/02/17 06:49:58;;;;;;;13.30;11.40;;;10.80;99.90;;;;;;5031872;28;20409;-77
2023/02/17 06:52:23;;;;;;;13.03;11.67;;;10.80;99.90;;;;;;5031721;28;20448;-77
2023/02/17 06:54:49;;;;;;;12.33;11.13;;;10.80;99.90;;;;;;5031874;28;20639;-77
2023/02/17 06:57:16;;;;;;;13.43;12.13;;;10.80;99.90;;;;;;5030810;28;20702;-78
2023/02/17 06:59:41;;;;;;;13.30;11.40;;;10.80;99.90;;;;;;5030787;28;20163;-77
2023/02/17 07:02:13;;;;;;;13.30;12.00;;;10.80;99.90;;;;;;5031951;28;20989;-77
2023/02/17 07:04:40;;;;;;;14.50;11.70;;;10.80;99.90;;;;;;5031278;28;20643;-77
2023/02/17 07:07:06;;;;;;;12.50;11.10;;;10.80;99.90;;;;;;5031636;28;20410;-77
2023/02/17 07:09:32;;;;;;;13.53;12.13;;;10.80;99.90;;;;;;5043630;28;20566;-77
2023/02/17 07:11:58;;;;;;;13.07;11.67;;;10.70;99.90;;;;;;5051116;28;20539;-77
2023/02/17 07:14:24;;;;;;;13.50;12.10;;;10.80;99.90;;;;;;5051246;28;20477;-77
2023/02/17 07:16:50;;;;;;;13.30;11.73;;;10.80;99.90;;;;;;5051040;28;20644;-77
2023/02/17 07:19:16;;;;;;;13.33;10.83;;;10.80;99.90;;;;;;5051420;28;20804;-77
2023/02/17 07:21:42;;;;;;;14.03;11.60;;;10.80;99.90;;;;;;5033142;28;20332;-77
2023/02/17 07:24:08;;;;;;;12.33;11.03;;;10.80;99.90;;;;;;5051218;28;20178;-77
2023/02/17 07:26:36;;;;;;;15.27;12.30;;;10.80;99.90;;;;;;5051023;28;20413;-77
2023/02/17 07:29:03;;;;;;;12.27;10.97;;;10.80;99.90;;;;;;5023406;28;20418;-77
2023/02/17 07:31:29;;;;;;;14.37;12.50;;;10.80;99.90;;;;;;5022391;28;20437;-77
2023/02/17 07:33:54;;;;;;;13.37;11.97;;;10.80;99.90;;;;;;5030381;28;20504;-77
2023/02/17 07:36:20;;;;;;;13.17;11.87;;;10.80;99.90;;;;;;5019489;28;21054;-77
2023/02/17 07:38:46;;;;;;;13.37;11.97;;;10.80;99.90;;;;;;5020446;28;20214;-77
2023/02/17 07:41:16;;;;;;;13.27;11.40;;;10.80;99.90;;;;;;5023431;28;20256;-77
2023/02/17 07:43:42;;;;;;;14.17;11.70;;;10.80;99.90;;;;;;5019838;28;20234;-77
2023/02/17 07:46:09;;;;;;;12.80;11.40;;;10.80;99.90;;;;;;5020155;28;20432;-77
2023/02/17 07:48:35;;;;;;;11.63;10.43;;;10.80;99.90;;;;;;5026881;28;20785;-77
2023/02/17 07:51:11;;;;;;;13.07;11.47;;;10.80;99.90;;;;;;5010907;28;21028;-77
2023/02/17 07:53:37;;;;;;;12.63;11.13;;;10.80;99.90;;;;;;5010691;28;20476;-77
2023/02/17 07:56:11;;;;;;;13.57;12.13;;;10.70;99.90;;;;;;5028596;28;20785;-78
2023/02/17 07:58:40;;;;;;;12.20;10.93;;;10.70;99.90;;;;;;5031318;28;20457;-77
2023/02/17 08:01:14;;;;;;;12.43;11.20;;;10.80;99.90;;;;;;5027303;28;20414;-78
2023/02/17 08:03:40;;;;;;;13.67;12.23;;;10.80;99.90;;;;;;5013932;28;20497;-78
2023/02/17 08:06:18;;;;;;;13.63;11.20;;;10.80;99.90;;;;;;5034718;28;20500;-78
2023/02/17 08:14:13;;;;;;;15.27;11.10;;;10.80;99.90;;;;;;5050415;28;20416;-77
2023/02/17 08:16:39;;;;;;;11.60;10.40;;;10.90;99.90;;;;;;5049953;28;20479;-77
2023/02/17 08:19:05;;;;;;;11.60;10.30;;;10.90;99.90;;;;;;5050985;28;20970;-78
2023/02/17 08:21:31;;;;;;;11.03;9.90;;;10.90;99.90;;;;;;5036205;28;20445;-77
2023/02/17 08:23:57;;;;;;;11.93;10.50;;;10.90;99.90;;;;;;5011477;28;20344;-77
2023/02/17 08:26:23;;;;;;;11.40;10.10;;;10.90;99.90;;;;;;5009471;28;20995;-77
2023/02/17 08:28:49;;;;;;;11.70;10.37;;;10.90;99.90;;;;;;5011081;28;20271;-77
2023/02/17 08:31:24;;;;;;;12.47;10.40;;;11.00;99.90;;;;;;5030325;28;20456;-78
2023/02/17 08:33:50;;;;;;;10.77;9.67;;;10.90;99.90;;;;;;5029925;28;21012;-77
2023/02/17 08:36:16;;;;;;;13.13;9.97;;;10.90;99.90;;;;;;5028872;28;20425;-77
2023/02/17 08:38:47;;;;;;;11.07;9.70;;;10.90;99.90;;;;;;5029344;28;20461;-77
2023/02/17 08:41:16;;;;;;;10.10;9.03;;;10.90;99.90;;;;;;5029735;28;20521;-77
2023/02/17 08:43:43;;;;;;;10.50;9.00;;;11.00;99.90;;;;;;5028639;28;20793;-77
2023/02/17 08:46:10;;;;;;;12.07;9.87;;;11.00;99.90;;;;;;5029732;28;20416;-77
2023/02/17 08:48:36;;;;;;;11.83;9.60;;;11.00;99.90;;;;;;5028411;28;20512;-77
2023/02/17 08:51:02;;;;;;;11.00;9.23;;;11.00;99.90;;;;;;5029465;28;20539;-77
2023/02/17 08:53:28;;;;;;;11.73;10.17;;;11.00;99.90;;;;;;5028602;28;20320;-77
2023/02/17 08:55:54;;;;;;;9.87;8.63;;;11.10;99.90;;;;;;5029674;28;20624;-77
2023/02/17 09:01:44;;;;;;;11.80;10.00;;;11.10;99.90;;;;;;5027782;28;20221;-77
2023/02/17 09:04:12;;;;;;;9.97;8.53;;;11.10;99.90;;;;;;5029310;28;20945;-77
2023/02/17 09:06:44;;;;;;;9.67;8.67;;;11.10;99.90;;;;;;5029556;28;20533;-77
2023/02/17 09:09:13;;;;;;;11.27;9.03;;;11.10;99.90;;;;;;5028069;28;20421;-77
2023/02/17 09:11:38;;;;;;;10.63;9.10;;;11.20;99.90;;;;;;5029012;28;20863;-77
2023/02/17 09:14:05;;;;;;;11.03;9.53;;;11.20;99.90;;;;;;5028971;28;20420;-77
2023/02/17 09:16:31;;;;;;;9.23;8.30;;;11.30;99.90;;;;;;5028203;28;20206;-77
2023/02/17 09:18:57;;;;;;;8.73;7.83;;;11.30;99.90;;;;;;5028821;28;20499;-77
2023/02/17 09:21:23;;;;;;;10.73;8.60;;;11.30;99.90;;;;;;5011208;28;20225;-77
2023/02/17 09:23:50;;;;;;;10.80;8.30;;;11.40;99.90;;;;;;5028485;28;20719;-77
2023/02/17 09:26:16;;;;;;;9.80;7.53;;;11.40;99.90;;;;;;5028818;28;20425;-77
2023/02/17 09:28:43;;;;;;;9.37;7.93;;;11.40;99.90;;;;;;5029013;28;21033;-77
2023/02/17 09:31:13;;;;;;;9.43;8.43;;;11.40;99.90;;;;;;5028794;28;20424;-77
2023/02/17 09:33:40;;;;;;;10.80;9.00;;;11.40;99.90;;;;;;5027427;28;20419;-76
2023/02/17 09:36:07;;;;;;;9.60;8.60;;;11.40;99.90;;;;;;5029123;28;20420;-77
2023/02/17 09:38:33;;;;;;;10.47;8.60;;;11.40;99.90;;;;;;5028623;28;20534;-77
2023/02/17 09:41:16;;;;;;;10.57;7.90;;;11.50;99.90;;;;;;5048428;28;20430;-79
2023/02/17 09:43:43;;;;;;;8.47;7.57;;;11.50;99.90;;;;;;5048666;28;20808;-79
2023/02/17 09:46:22;;;;;;;9.33;8.20;;;11.50;99.90;;;;;;5047800;28;20421;-78
2023/02/17 09:48:49;;;;;;;9.17;7.70;;;11.60;99.90;;;;;;5048632;28;20422;-79
2023/02/17 09:51:30;;;;;;;8.93;7.73;;;11.70;99.90;;;;;;5048718;28;20451;-79
2023/02/17 09:54:09;;;;;;;9.60;7.40;;;11.70;99.90;;;;;;5047866;28;20823;-78
2023/02/17 09:56:41;;;;;;;7.83;6.90;;;11.70;99.90;;;;;;5047525;28;20411;-79
2023/02/17 09:59:19;;;;;;;8.33;6.40;;;11.80;99.90;;;;;;5048428;28;20963;-78
2023/02/17 10:01:47;;;;;;;8.93;8.03;;;11.80;99.90;;;;;;5049046;28;20423;-79
2023/02/17 10:04:25;;;;;;;7.90;7.00;;;11.90;99.90;;;;;;5048745;28;20970;-79
2023/02/17 10:07:00;;;;;;;11.80;7.03;;;11.90;99.90;;;;;;5048949;28;20415;-79
2023/02/17 10:09:29;;;;;;;8.77;7.30;;;11.90;99.90;;;;;;5048571;28;20426;-80
2023/02/17 10:12:03;;;;;;;8.80;7.90;;;12.00;99.90;;;;;;5048586;28;20459;-79
2023/02/17 10:14:28;;;;;;;8.87;7.60;;;12.00;99.90;;;;;;5048412;28;20420;-78
2023/02/17 10:17:02;;;;;;;8.50;7.60;;;12.00;99.90;;;;;;5048502;28;20935;-78
2023/02/17 10:19:35;;;;;;;7.77;6.77;;;12.00;99.90;;;;;;5048237;28;20288;-78
2023/02/17 10:22:07;;;;;;;8.90;7.00;;;12.10;99.90;;;;;;5048349;28;20531;-78
2023/02/17 10:24:33;;;;;;;8.30;6.97;;;12.10;99.90;;;;;;5047102;28;20783;-78
2023/02/17 10:27:13;;;;;;;7.13;6.30;;;12.10;99.90;;;;;;5048437;28;20499;-78
2023/02/17 10:30:13;;;;;;;8.77;6.73;;;12.20;99.90;;;;;;5046930;28;20170;-79
2023/02/17 10:33:07;;;;;;;8.77;6.80;;;12.20;99.90;;;;;;5047111;28;20444;-79
2023/02/17 10:35:42;;;;;;;7.83;6.67;;;12.20;99.90;;;;;;5047392;28;20933;-78
2023/02/17 10:38:16;;;;;;;7.50;6.53;;;12.20;99.90;;;;;;5051881;28;20465;-78
2023/02/17 10:40:46;;;;;;;7.07;6.37;;;12.20;99.90;;;;;;5033920;28;20417;-78
2023/02/17 10:43:20;;;;;;;9.17;7.47;;;12.20;99.90;;;;;;5031707;28;20733;-78
2023/02/17 10:45:50;;;;;;;8.53;6.60;;;12.20;99.90;;;;;;5032186;28;20404;-79
2023/02/17 10:48:47;;;;;;;10.50;7.40;;;12.20;99.90;;;;;;5032053;28;20417;-78
2023/02/17 10:51:17;;;;;;;7.17;5.93;;;12.20;99.90;;;;;;5030343;28;20784;-79
2023/02/17 10:53:48;;;;;;;8.53;6.70;;;12.20;99.90;;;;;;5031315;28;20989;-78
2023/02/17 10:56:31;;;;;;;7.80;6.10;;;12.20;99.90;;;;;;5030862;28;20448;-78
2023/02/17 10:59:05;;;;;;;7.40;6.23;;;12.20;99.90;;;;;;5031833;28;20530;-78
2023/02/17 11:01:32;;;;;;;7.17;5.70;;;12.20;99.90;;;;;;5031608;28;20440;-78
2023/02/17 11:04:00;;;;;;;9.17;6.07;;;12.20;99.90;;;;;;5030812;28;21033;-78
2023/02/17 11:06:26;;;;;;;6.10;5.47;;;12.20;99.90;;;;;;5030925;28;20953;-78
2023/02/17 11:08:58;;;;;;;8.40;6.43;;;12.30;99.90;;;;;;5031620;28;20425;-79
2023/02/17 11:11:28;;;;;;;9.37;6.00;;;12.30;99.90;;;;;;5031552;28;20526;-78
2023/02/17 11:13:56;;;;;;;7.07;5.90;;;12.30;99.90;;;;;;5031276;28;20428;-78
2023/02/17 11:16:35;;;;;;;6.50;5.40;;;12.30;99.90;;;;;;5030283;28;20791;-78
2023/02/17 11:19:02;;;;;;;8.20;5.83;;;12.30;99.90;;;;;;5030006;28;20915;-79
2023/02/17 11:21:29;;;;;;;8.17;5.03;;;12.30;99.90;;;;;;5029972;28;20780;-78
2023/02/17 11:24:01;;;;;;;6.93;5.40;;;12.30;99.90;;;;;;5031299;28;20976;-78
2023/02/17 11:26:30;;;;;;;6.40;4.90;;;12.30;99.90;;;;;;5031215;28;20891;-78
2023/02/17 11:29:19;;;;;;;7.10;5.00;;;12.30;99.90;;;;;;5031017;28;20457;-78
2023/02/17 11:32:16;;;;;;;5.23;4.47;;;12.30;99.90;;;;;;5029753;28;20536;-78
2023/02/17 11:34:42;;;;;;;5.63;5.03;;;12.40;99.90;;;;;;5030826;28;20469;-78
2023/02/17 11:37:08;;;;;;;6.00;4.30;;;12.50;99.90;;;;;;5029753;28;20417;-78
2023/02/17 11:39:43;;;;;;;6.37;5.00;;;12.60;99.90;;;;;;5036814;28;20522;-78
2023/02/17 11:42:25;;;;;;;7.30;4.67;;;12.60;99.90;;;;;;5049287;28;20197;-78
2023/02/17 11:44:54;;;;;;;5.33;4.27;;;12.70;99.90;;;;;;5049438;28;20440;-78
2023/02/17 11:47:45;;;;;;;6.70;4.97;;;12.70;99.90;;;;;;5049721;28;20427;-78
2023/02/17 11:50:42;;;;;;;5.83;4.50;;;12.70;99.90;;;;;;5049524;28;20743;-78
2023/02/17 11:53:14;;;;;;;5.37;4.87;;;12.80;99.90;;;;;;5048683;28;20861;-78
2023/02/17 11:56:06;;;;;;;6.73;4.30;;;12.90;99.90;;;;;;5049453;28;20781;-78
2023/02/17 11:58:49;;;;;;;4.90;4.17;;;12.90;99.90;;;;;;5050593;28;20621;-78
2023/02/17 12:01:53;;;;;;;5.00;4.00;;;13.00;99.90;;;;;;5050295;28;20973;-77
2023/02/17 12:04:31;;;;;;;5.80;4.13;;;13.10;99.90;;;;;;5048411;28;20795;-78
2023/02/17 12:07:06;;;;;;;4.77;3.93;;;13.20;99.90;;;;;;5050414;28;20462;-78
2023/02/17 12:10:03;;;;;;;7.00;3.50;;;13.20;99.90;;;;;;5050281;28;20430;-78
2023/02/17 12:12:56;;;;;;;5.40;3.83;;;13.20;99.90;;;;;;5050427;28;20475;-79
2023/02/17 12:15:40;;;;;;;4.30;3.50;;;13.10;99.90;;;;;;5032337;28;20432;-78
2023/02/17 12:18:24;;;;;;;5.30;3.67;;;13.10;99.90;;;;;;5048681;28;20548;-78
2023/02/17 12:21:16;;;;;;;5.77;3.93;;;13.10;99.90;;;;;;5048763;28;20461;-78
2023/02/17 12:23:45;;;;;;;10.60;4.30;;;13.00;99.90;;;;;;5041423;28;20432;-78
2023/02/17 12:26:30;;;;;;;5.40;3.73;;;13.00;99.90;;;;;;5050169;28;20416;-78
2023/02/17 12:29:23;;;;;;;4.27;3.83;;;13.10;99.90;;;;;;5048637;28;20412;-79
2023/02/17 12:31:55;;;;;;;4.20;3.50;;;13.00;99.90;;;;;;5049999;28;20444;-78
2023/02/17 12:34:35;;;;;;;5.40;3.90;;;13.00;99.90;;;;;;5049615;28;20416;-78
2023/02/17 12:37:04;;;;;;;5.50;3.93;;;13.00;99.90;;;;;;5049975;28;20416;-78
2023/02/17 12:39:39;;;;;;;4.43;3.47;;;13.00;99.90;;;;;;5042713;28;20476;-78
2023/02/17 12:42:13;;;;;;;4.47;3.80;;;13.10;99.90;;;;;;5028597;28;20456;-78
2023/02/17 12:44:43;;;;;;;4.17;3.37;;;13.10;99.90;;;;;;5029600;28;20421;-79
2023/02/17 12:47:20;;;;;;;3.60;3.20;;;13.00;99.90;;;;;;5029832;28;20424;-78
2023/02/17 12:49:57;;;;;;;4.00;3.60;;;13.00;99.90;;;;;;5028316;28;20429;-79
2023/02/17 12:52:51;;;;;;;4.33;3.43;;;13.10;99.90;;;;;;5027928;28;20513;-78
2023/02/17 12:55:24;;;;;;;4.80;3.30;;;13.00;99.90;;;;;;5029366;28;20425;-78
2023/02/17 12:57:57;;;;;;;5.17;3.67;;;13.00;99.90;;;;;;5028152;28;20530;-78